Time;durP1;ratioP1;P1;durP2;ratioP2;P2;SDS_P1;SDS_P2;PMS_P1;PMS_P2;Temp;Humidity;BMP_temperature;BMP_pressure;BME280_temperature;BME280_humidity;BME280_pressure;Samples;Min_cycle;Max_cycle;Signal;HPM_P1;HPM_P2
2023/08/08 00:01:54;;;;;;;2.92;1.00;;;;;;;13.65;100.00;100447.78;5089755;28;20048;-69
2023/08/08 00:04:21;;;;;;;2.45;0.80;;;;;;;13.71;100.00;100451.00;5081709;28;20051;-69
2023/08/08 00:06:47;;;;;;;3.80;1.00;;;;;;;13.69;100.00;100448.44;5085023;28;20044;-69
2023/08/08 00:09:14;;;;;;;3.15;1.10;;;;;;;13.51;100.00;100438.91;5090617;28;20048;-69
2023/08/08 00:11:41;;;;;;;3.03;1.27;;;;;;;13.59;100.00;100442.00;5089913;28;20051;-69
2023/08/08 00:14:07;;;;;;;2.08;1.00;;;;;;;13.56;100.00;100432.47;5083859;28;20052;-69
2023/08/08 00:16:34;;;;;;;1.88;1.00;;;;;;;13.52;100.00;100443.25;5080321;28;20561;-69
2023/08/08 00:19:01;;;;;;;5.57;0.90;;;;;;;13.49;100.00;100431.13;5074496;28;20734;-69
2023/08/08 00:21:27;;;;;;;4.72;1.00;;;;;;;13.44;100.00;100434.00;5089976;28;20391;-69
2023/08/08 00:23:54;;;;;;;3.60;1.08;;;;;;;13.31;100.00;100438.22;5090036;28;20067;-69
2023/08/08 00:26:21;;;;;;;3.45;1.10;;;;;;;13.11;100.00;100410.34;5090412;28;20496;-69
2023/08/08 00:28:47;;;;;;;1.55;0.90;;;;;;;13.17;100.00;100438.06;5090007;28;20060;-69
2023/08/08 00:31:17;;;;;;;3.08;1.17;;;;;;;13.11;100.00;100424.31;5075972;28;20052;-69
2023/08/08 00:33:44;;;;;;;5.65;0.95;;;;;;;12.89;100.00;100434.25;5089874;28;20044;-69
2023/08/08 00:36:11;;;;;;;2.47;1.10;;;;;;;12.80;100.00;100433.00;5084760;28;20493;-69
2023/08/08 00:38:37;;;;;;;2.35;0.90;;;;;;;12.81;100.00;100421.53;5081722;28;20048;-69
2023/08/08 00:41:04;;;;;;;1.63;0.80;;;;;;;12.84;100.00;100418.75;5088912;28;20044;-69
2023/08/08 00:43:31;;;;;;;2.05;0.93;;;;;;;12.77;100.00;100427.88;5087772;28;20048;-69
2023/08/08 00:45:58;;;;;;;2.30;1.08;;;;;;;12.86;100.00;100414.28;5087937;28;20071;-69
2023/08/08 00:48:25;;;;;;;3.83;1.00;;;;;;;12.71;100.00;100405.41;5077106;28;20052;-69
2023/08/08 00:50:52;;;;;;;2.38;0.90;;;;;;;12.73;100.00;100429.81;5089573;28;20044;-69
2023/08/08 00:53:19;;;;;;;2.05;0.90;;;;;;;12.84;100.00;100431.91;5069355;28;20481;-69
2023/08/08 00:55:46;;;;;;;3.65;1.05;;;;;;;12.75;100.00;100427.13;5076701;28;20044;-69
2023/08/08 00:58:15;;;;;;;2.30;0.90;;;;;;;12.69;100.00;100428.25;5085514;28;20048;-69
2023/08/08 01:00:42;;;;;;;5.82;1.00;;;;;;;12.65;100.00;100429.34;5084010;28;20162;-69
2023/08/08 01:03:08;;;;;;;1.38;0.90;;;;;;;12.67;100.00;100421.41;5089799;28;20435;-69
2023/08/08 01:05:43;;;;;;;3.58;1.10;;;;;;;12.65;100.00;100418.84;5089216;28;20044;-69
2023/08/08 01:08:14;;;;;;;1.20;0.80;;;;;;;12.69;100.00;100430.88;5076072;28;20055;-69
2023/08/08 01:10:41;;;;;;;2.63;1.10;;;;;;;12.64;100.00;100421.56;5068419;28;20056;-69
2023/08/08 01:13:17;;;;;;;2.03;0.90;;;;;;;12.61;100.00;100421.72;5078706;28;20662;-69
2023/08/08 01:15:46;;;;;;;2.10;0.90;;;;;;;12.54;100.00;100416.78;5088186;28;20047;-69
2023/08/08 01:18:14;;;;;;;2.15;1.38;;;;;;;12.58;100.00;100412.22;5078146;28;20397;-69
2023/08/08 01:20:44;;;;;;;2.17;1.05;;;;;;;12.62;100.00;100423.41;5083419;28;20493;-69
2023/08/08 01:23:23;;;;;;;1.35;0.88;;;;;;;12.60;100.00;100417.41;5088603;28;20044;-69
2023/08/08 01:25:51;;;;;;;2.33;1.15;;;;;;;12.59;100.00;100411.31;5088391;28;20046;-69
2023/08/08 01:28:22;;;;;;;3.53;1.08;;;;;;;12.59;100.00;100410.44;5089629;28;20443;-69
2023/08/08 01:30:49;;;;;;;3.50;1.45;;;;;;;12.42;100.00;100412.16;5085975;28;20127;-69
2023/08/08 01:33:16;;;;;;;2.42;1.00;;;;;;;12.33;100.00;100396.84;5087411;28;20485;-69
2023/08/08 01:36:00;;;;;;;2.40;1.00;;;;;;;12.18;100.00;100395.00;5075483;28;20409;-69
2023/08/08 01:38:32;;;;;;;2.90;1.15;;;;;;;12.38;100.00;100407.97;5089347;28;20048;-69
2023/08/08 01:40:59;;;;;;;4.22;1.20;;;;;;;12.26;100.00;100409.44;5074527;28;20072;-69
2023/08/08 01:43:27;;;;;;;2.30;0.90;;;;;;;12.34;100.00;100409.91;5087992;28;20498;-69
2023/08/08 01:45:55;;;;;;;4.85;1.30;;;;;;;12.33;100.00;100413.44;5088022;28;20631;-69
2023/08/08 01:48:22;;;;;;;1.45;0.95;;;;;;;12.27;100.00;100403.28;5079659;28;20390;-69
2023/08/08 01:50:49;;;;;;;4.75;0.90;;;;;;;12.26;100.00;100425.19;5087960;28;20405;-69
2023/08/08 01:53:15;;;;;;;3.03;1.05;;;;;;;12.23;100.00;100416.63;5075048;28;20075;-69
2023/08/08 01:55:42;;;;;;;2.15;0.90;;;;;;;12.21;100.00;100421.09;5089497;28;20574;-69
2023/08/08 01:58:09;;;;;;;3.00;1.10;;;;;;;12.16;100.00;100418.69;5080707;28;20055;-69
2023/08/08 02:00:36;;;;;;;3.85;1.10;;;;;;;12.22;100.00;100421.03;5067704;28;20063;-69
2023/08/08 02:03:03;;;;;;;3.13;1.20;;;;;;;12.21;100.00;100414.06;5081732;28;20044;-69
2023/08/08 02:05:30;;;;;;;1.50;0.98;;;;;;;12.26;100.00;100411.22;5087554;28;20054;-69
2023/08/08 02:07:57;;;;;;;5.00;1.20;;;;;;;12.23;100.00;100409.59;5088119;28;20473;-69
2023/08/08 02:10:23;;;;;;;2.03;1.00;;;;;;;12.23;100.00;100403.50;5073948;28;20063;-69
2023/08/08 02:12:50;;;;;;;1.23;0.80;;;;;;;12.24;100.00;100394.69;5081867;28;20060;-69
2023/08/08 02:15:17;;;;;;;1.75;0.95;;;;;;;12.26;100.00;100404.19;5086806;28;20043;-69
2023/08/08 02:17:46;;;;;;;2.88;0.98;;;;;;;12.20;100.00;100406.25;5075841;28;20486;-69
2023/08/08 02:20:13;;;;;;;3.75;1.10;;;;;;;11.99;100.00;100392.41;5088845;28;20155;-69
2023/08/08 02:22:40;;;;;;;3.25;1.00;;;;;;;12.17;100.00;100411.69;5080697;28;20643;-69
2023/08/08 02:25:07;;;;;;;3.83;1.02;;;;;;;12.22;100.00;100405.28;5068786;28;20056;-69
2023/08/08 02:27:33;;;;;;;2.95;1.67;;;;;;;12.20;100.00;100395.75;5072269;28;20044;-69
2023/08/08 02:30:00;;;;;;;1.85;1.05;;;;;;;12.05;100.00;100397.38;5079450;28;20048;-69
2023/08/08 02:32:27;;;;;;;3.83;1.10;;;;;;;11.98;100.00;100396.81;5086256;28;20048;-69
2023/08/08 02:34:53;;;;;;;2.22;1.00;;;;;;;11.87;100.00;100385.97;5083108;28;20048;-69
2023/08/08 02:37:20;;;;;;;1.67;0.82;;;;;;;11.99;100.00;100380.16;5071772;28;20051;-69
2023/08/08 02:39:47;;;;;;;0.90;0.80;;;;;;;12.09;100.00;100391.03;5071538;28;20052;-69
2023/08/08 02:42:13;;;;;;;3.10;1.10;;;;;;;12.02;100.00;100382.63;5088001;28;20530;-70
2023/08/08 02:44:40;;;;;;;5.05;1.20;;;;;;;11.95;100.00;100386.47;5076212;28;20060;-69
2023/08/08 02:47:06;;;;;;;2.58;0.93;;;;;;;11.93;100.00;100385.69;5085851;28;20044;-69
2023/08/08 02:49:33;;;;;;;2.13;0.93;;;;;;;11.87;100.00;100378.94;5085895;28;20054;-69
2023/08/08 02:52:01;;;;;;;1.58;0.90;;;;;;;12.02;100.00;100387.03;5083816;28;20090;-68
2023/08/08 02:54:28;;;;;;;4.43;1.00;;;;;;;12.10;100.00;100388.34;5078977;28;20056;-69
2023/08/08 02:56:55;;;;;;;1.48;0.80;;;;;;;11.95;100.00;100375.97;5086814;28;20040;-69
2023/08/08 02:59:21;;;;;;;2.70;1.10;;;;;;;11.92;100.00;100366.50;5081570;28;20048;-69
2023/08/08 03:01:49;;;;;;;2.85;1.15;;;;;;;11.93;100.00;100362.97;5091700;28;20052;-69
2023/08/08 03:04:16;;;;;;;2.50;0.93;;;;;;;11.91;100.00;100367.41;5083832;28;20052;-69
2023/08/08 03:06:43;;;;;;;3.35;1.10;;;;;;;11.95;100.00;100374.22;5085599;28;20462;-69
2023/08/08 03:09:09;;;;;;;3.28;1.00;;;;;;;11.96;100.00;100380.31;5090736;28;20540;-69
2023/08/08 03:11:37;;;;;;;4.60;1.05;;;;;;;11.97;100.00;100376.78;5086881;28;20060;-70
2023/08/08 03:14:04;;;;;;;1.70;1.00;;;;;;;11.96;100.00;100381.16;5080605;28;20394;-69
2023/08/08 03:16:30;;;;;;;4.38;1.40;;;;;;;11.90;100.00;100377.97;5081922;28;20044;-69
2023/08/08 03:18:57;;;;;;;3.90;1.20;;;;;;;11.85;100.00;100375.56;5089637;28;20056;-69
2023/08/08 03:21:24;;;;;;;7.53;1.10;;;;;;;11.86;100.00;100382.50;5077407;28;20079;-69
2023/08/08 03:23:50;;;;;;;3.17;1.13;;;;;;;11.92;100.00;100368.28;5091969;28;20389;-69
2023/08/08 03:26:17;;;;;;;3.78;1.30;;;;;;;11.98;100.00;100367.13;5085284;28;20040;-69
2023/08/08 03:28:43;;;;;;;3.28;1.10;;;;;;;11.80;100.00;100372.31;5071116;28;20059;-69
2023/08/08 03:31:10;;;;;;;1.92;0.90;;;;;;;11.82;100.00;100365.22;5090508;28;20078;-69
2023/08/08 03:33:37;;;;;;;2.50;1.10;;;;;;;11.80;100.00;100371.47;5091575;28;20051;-69
2023/08/08 03:36:04;;;;;;;4.00;1.38;;;;;;;11.87;100.00;100365.84;5091955;28;20052;-69
2023/08/08 03:38:31;;;;;;;2.78;1.00;;;;;;;11.89;100.00;100357.91;5092036;28;20052;-69
2023/08/08 03:40:58;;;;;;;2.42;1.00;;;;;;;11.92;100.00;100357.78;5079310;28;20044;-69
2023/08/08 03:43:24;;;;;;;4.55;1.50;;;;;;;11.80;100.00;100353.94;5083889;28;20051;-69
2023/08/08 03:45:51;;;;;;;2.95;1.10;;;;;;;11.81;100.00;100363.53;5085190;28;20048;-69
2023/08/08 03:48:17;;;;;;;3.08;1.20;;;;;;;11.64;100.00;100353.84;5086787;28;20087;-69
2023/08/08 03:50:46;;;;;;;3.20;1.23;;;;;;;11.77;100.00;100365.44;5081193;28;20048;-69
2023/08/08 03:53:13;;;;;;;3.83;1.10;;;;;;;11.68;100.00;100363.25;5091562;28;20043;-69
2023/08/08 03:55:39;;;;;;;2.30;1.02;;;;;;;11.80;100.00;100360.97;5091836;28;20055;-69
2023/08/08 03:58:06;;;;;;;3.60;1.10;;;;;;;11.82;100.00;100359.13;5091227;28;20072;-69
2023/08/08 04:00:33;;;;;;;4.07;1.17;;;;;;;11.77;100.00;100352.34;5084987;28;20052;-69
2023/08/08 04:03:00;;;;;;;5.80;1.38;;;;;;;11.74;100.00;100349.84;5090838;28;20056;-69
2023/08/08 04:05:26;;;;;;;7.13;1.30;;;;;;;11.61;100.00;100353.97;5085514;28;20049;-69
2023/08/08 04:07:53;;;;;;;3.25;1.30;;;;;;;11.69;100.00;100353.63;5083651;28;20060;-69
2023/08/08 04:10:20;;;;;;;5.25;1.30;;;;;;;11.67;100.00;100355.44;5085494;28;20059;-69
2023/08/08 04:12:46;;;;;;;5.32;1.00;;;;;;;11.46;100.00;100342.47;5081849;28;20056;-69
2023/08/08 04:15:13;;;;;;;3.67;1.10;;;;;;;11.67;100.00;100342.34;5090598;28;20063;-69
2023/08/08 04:17:40;;;;;;;3.28;1.13;;;;;;;11.85;100.00;100344.09;5082932;28;20056;-69
2023/08/08 04:20:07;;;;;;;3.13;1.02;;;;;;;11.74;100.00;100341.16;5084466;28;20052;-69
2023/08/08 04:22:34;;;;;;;4.93;1.20;;;;;;;11.65;100.00;100347.69;5089935;28;20371;-69
2023/08/08 04:25:00;;;;;;;2.72;1.00;;;;;;;11.67;100.00;100342.34;5090971;28;20055;-69
2023/08/08 04:27:27;;;;;;;1.80;0.95;;;;;;;11.75;100.00;100343.66;5085749;28;20045;-69
2023/08/08 04:29:53;;;;;;;4.00;1.50;;;;;;;11.70;100.00;100340.41;5081827;28;20052;-69
2023/08/08 04:32:20;;;;;;;3.55;1.20;;;;;;;11.57;100.00;100334.09;5089435;28;20681;-69
2023/08/08 04:34:47;;;;;;;4.65;1.27;;;;;;;11.47;100.00;100338.91;5089768;28;20387;-69
2023/08/08 04:37:13;;;;;;;4.75;1.20;;;;;;;11.59;100.00;100326.97;5090638;28;20392;-69
2023/08/08 04:39:40;;;;;;;4.88;1.10;;;;;;;11.51;100.00;100337.84;5082603;28;20490;-69
2023/08/08 04:42:07;;;;;;;5.03;1.40;;;;;;;11.54;100.00;100336.84;5081978;28;20444;-69
2023/08/08 04:44:33;;;;;;;5.90;1.38;;;;;;;11.55;100.00;100330.69;5087496;28;20481;-69
2023/08/08 04:47:00;;;;;;;2.00;1.00;;;;;;;11.49;100.00;100342.31;5077826;28;20044;-69
2023/08/08 04:49:28;;;;;;;5.30;1.15;;;;;;;11.47;100.00;100338.06;5075709;28;20049;-69
2023/08/08 04:51:55;;;;;;;3.65;1.30;;;;;;;11.42;100.00;100340.03;5089967;28;20208;-69
2023/08/08 04:54:22;;;;;;;3.45;1.20;;;;;;;11.58;100.00;100339.25;5090124;28;20047;-69
2023/08/08 04:56:48;;;;;;;3.65;1.13;;;;;;;11.63;100.00;100325.06;5076686;28;20046;-69
2023/08/08 04:59:15;;;;;;;5.55;1.40;;;;;;;11.52;100.00;100333.44;5090174;28;20068;-69
2023/08/08 05:01:42;;;;;;;3.72;1.15;;;;;;;11.49;100.00;100323.09;5090068;28;20044;-69
2023/08/08 05:04:09;;;;;;;5.05;1.35;;;;;;;11.46;100.00;100324.13;5088928;28;20078;-69
2023/08/08 05:06:35;;;;;;;8.35;1.20;;;;;;;11.67;100.00;100335.34;5073479;28;20568;-68
2023/08/08 05:09:03;;;;;;;2.88;1.00;;;;;;;11.71;100.00;100336.88;5088992;28;20048;-69
2023/08/08 05:11:29;;;;;;;6.38;1.50;;;;;;;11.73;100.00;100339.44;5089351;28;20047;-69
2023/08/08 05:13:57;;;;;;;5.28;1.23;;;;;;;11.75;100.00;100338.41;5081421;28;20105;-69
2023/08/08 05:16:24;;;;;;;3.50;1.27;;;;;;;11.65;100.00;100338.94;5076943;28;20512;-69
2023/08/08 05:18:51;;;;;;;3.05;1.20;;;;;;;11.73;100.00;100326.31;5089414;28;20051;-69
2023/08/08 05:21:19;;;;;;;2.30;1.08;;;;;;;11.65;100.00;100341.56;5081938;28;20044;-69
2023/08/08 05:23:46;;;;;;;5.32;1.40;;;;;;;11.66;100.00;100317.91;5074898;28;20449;-69
2023/08/08 05:26:14;;;;;;;3.33;1.10;;;;;;;11.67;100.00;100329.22;5089676;28;20052;-69
2023/08/08 05:28:41;;;;;;;5.00;1.30;;;;;;;11.76;100.00;100339.28;5075312;28;20079;-69
2023/08/08 05:31:09;;;;;;;2.88;1.20;;;;;;;11.77;100.00;100341.84;5090629;28;20040;-69
2023/08/08 05:33:35;;;;;;;4.90;1.20;;;;;;;11.81;100.00;100334.69;5090085;28;20421;-69
2023/08/08 05:36:02;;;;;;;4.20;1.17;;;;;;;11.80;100.00;100332.13;5090210;28;20040;-69
2023/08/08 05:38:29;;;;;;;6.93;1.33;;;;;;;11.80;100.00;100345.25;5089652;28;20716;-69
2023/08/08 05:40:55;;;;;;;2.97;1.05;;;;;;;11.84;100.00;100346.78;5089104;28;20056;-69
2023/08/08 05:43:22;;;;;;;5.43;1.50;;;;;;;11.85;100.00;100335.38;5087286;28;20048;-69
2023/08/08 05:45:49;;;;;;;4.70;1.10;;;;;;;11.96;100.00;100346.19;5076793;28;20050;-69
2023/08/08 05:48:16;;;;;;;4.47;1.10;;;;;;;11.95;100.00;100332.25;5083433;28;20097;-69
2023/08/08 05:50:42;;;;;;;4.45;1.73;;;;;;;12.05;100.00;100337.03;5088984;28;20052;-69
2023/08/08 05:53:09;;;;;;;4.82;1.15;;;;;;;12.08;100.00;100331.63;5090546;28;20052;-69
2023/08/08 05:55:36;;;;;;;5.13;1.13;;;;;;;11.94;100.00;100324.44;5089843;28;20097;-69
2023/08/08 05:58:04;;;;;;;3.03;1.20;;;;;;;11.98;100.00;100325.97;5089434;28;20405;-69
2023/08/08 06:00:31;;;;;;;7.68;1.50;;;;;;;12.02;100.00;100331.94;5082397;28;20056;-69
2023/08/08 06:02:58;;;;;;;4.10;1.23;;;;;;;12.04;100.00;100325.69;5086009;28;20152;-69
2023/08/08 06:05:25;;;;;;;2.92;1.13;;;;;;;12.06;100.00;100326.47;5082570;28;20048;-69
2023/08/08 06:07:52;;;;;;;3.30;1.05;;;;;;;12.02;100.00;100314.41;5093158;28;20437;-69
2023/08/08 06:10:18;;;;;;;3.17;1.20;;;;;;;12.24;100.00;100316.78;5091922;28;20048;-69
2023/08/08 06:12:45;;;;;;;3.72;1.10;;;;;;;12.11;100.00;100323.59;5093600;28;20055;-69
2023/08/08 06:15:12;;;;;;;3.97;1.25;;;;;;;12.29;100.00;100312.16;5093435;28;20360;-69
2023/08/08 06:17:39;;;;;;;3.55;1.30;;;;;;;12.32;100.00;100329.53;5092867;28;20066;-69
2023/08/08 06:20:09;;;;;;;4.65;1.38;;;;;;;12.41;100.00;100308.06;5078430;28;20080;-69
2023/08/08 06:22:37;;;;;;;4.63;1.30;;;;;;;13.18;100.00;100303.09;5092546;28;20120;-69
2023/08/08 06:25:04;;;;;;;4.40;1.52;;;;;;;13.69;100.00;100324.81;5093428;28;20052;-69
2023/08/08 06:27:30;;;;;;;4.72;1.08;;;;;;;14.40;100.00;100320.66;5077653;28;20531;-69
2023/08/08 06:29:58;;;;;;;2.67;1.15;;;;;;;14.93;100.00;100319.19;5092909;28;20101;-69
2023/08/08 06:32:26;;;;;;;4.55;1.05;;;;;;;14.87;100.00;100322.19;5089566;28;20284;-69
2023/08/08 06:34:52;;;;;;;1.88;0.80;;;;;;;14.70;100.00;100327.69;5081913;28;20044;-69
2023/08/08 06:37:19;;;;;;;2.65;0.95;;;;;;;15.43;100.00;100329.28;5072744;28;20048;-69
2023/08/08 06:39:45;;;;;;;1.90;0.90;;;;;;;15.50;100.00;100327.94;5072785;28;20490;-69
2023/08/08 06:42:12;;;;;;;4.45;1.05;;;;;;;15.77;100.00;100333.22;5086383;28;20555;-69
2023/08/08 06:44:43;;;;;;;5.22;1.20;;;;;;;15.86;100.00;100331.78;5078165;28;20418;-69
2023/08/08 06:47:11;;;;;;;3.55;1.00;;;;;;;16.19;100.00;100335.75;5082941;28;20475;-69
2023/08/08 06:49:38;;;;;;;4.45;1.20;;;;;;;16.77;100.00;100326.47;5087825;28;20070;-69
2023/08/08 06:52:05;;;;;;;3.20;0.90;;;;;;;17.03;100.00;100329.09;5079377;28;20048;-69
2023/08/08 06:54:32;;;;;;;4.63;0.98;;;;;;;16.90;100.00;100326.47;5078617;28;20059;-69
2023/08/08 06:57:01;;;;;;;3.22;1.00;;;;;;;17.20;100.00;100335.84;5084839;28;20044;-69
2023/08/08 06:59:28;;;;;;;5.70;1.02;;;;;;;17.35;100.00;100337.38;5092353;28;20121;-70
2023/08/08 07:01:56;;;;;;;3.17;0.90;;;;;;;17.61;100.00;100343.41;5085635;28;20509;-69
2023/08/08 07:04:23;;;;;;;5.35;0.90;;;;;;;17.29;100.00;100337.81;5086471;28;20048;-69
2023/08/08 07:06:49;;;;;;;5.75;1.17;;;;;;;17.68;100.00;100343.78;5087564;28;20478;-69
2023/08/08 07:09:16;;;;;;;4.43;1.08;;;;;;;18.02;100.00;100336.00;5083364;28;20505;-69
2023/08/08 07:11:43;;;;;;;4.60;0.93;;;;;;;17.90;100.00;100334.28;5085383;28;20052;-70
2023/08/08 07:14:10;;;;;;;4.32;1.02;;;;;;;17.99;100.00;100336.28;5079019;28;20564;-70
2023/08/08 07:16:36;;;;;;;4.25;1.23;;;;;;;18.58;100.00;100325.53;5086568;28;20481;-69
2023/08/08 07:19:03;;;;;;;4.70;1.10;;;;;;;18.55;100.00;100330.22;5069739;28;20052;-70
2023/08/08 07:21:31;;;;;;;3.95;1.00;;;;;;;18.51;100.00;100332.28;5090169;28;20537;-70
2023/08/08 07:23:57;;;;;;;3.63;0.70;;;;;;;18.57;100.00;100334.47;5082747;28;20127;-70
2023/08/08 07:26:24;;;;;;;6.30;1.15;;;;;;;18.51;100.00;100339.41;5088443;28;20401;-70
2023/08/08 07:28:51;;;;;;;3.78;1.05;;;;;;;18.91;100.00;100331.00;5090592;28;20545;-70
2023/08/08 07:31:17;;;;;;;5.15;1.27;;;;;;;19.03;100.00;100339.78;5091750;28;20052;-70
2023/08/08 07:33:44;;;;;;;4.10;1.13;;;;;;;18.70;100.00;100336.16;5090612;28;20059;-70
2023/08/08 07:36:11;;;;;;;6.65;1.17;;;;;;;18.85;100.00;100329.66;5087337;28;20073;-70
2023/08/08 07:38:38;;;;;;;5.25;1.05;;;;;;;17.71;100.00;100335.63;5079943;28;20516;-70
2023/08/08 07:41:05;;;;;;;4.80;0.82;;;;;;;17.89;100.00;100328.16;5088650;28;20466;-70
2023/08/08 07:43:31;;;;;;;3.85;0.98;;;;;;;18.44;100.00;100322.28;5089447;28;20056;-70
2023/08/08 07:45:59;;;;;;;6.35;1.15;;;;;;;18.28;100.00;100330.56;5091941;28;20489;-71
2023/08/08 07:48:25;;;;;;;4.78;1.30;;;;;;;18.03;100.00;100324.47;5077775;28;20056;-70
2023/08/08 07:50:52;;;;;;;3.88;0.90;;;;;;;17.79;100.00;100320.00;5077795;28;20052;-70
2023/08/08 07:53:18;;;;;;;3.05;0.82;;;;;;;18.28;100.00;100326.09;5085880;28;20052;-70
2023/08/08 07:55:45;;;;;;;3.25;0.73;;;;;;;18.62;100.00;100317.34;5086288;28;20492;-69
2023/08/08 07:58:12;;;;;;;7.25;1.10;;;;;;;18.17;100.00;100326.09;5091049;28;20528;-70
2023/08/08 08:00:38;;;;;;;1.52;0.70;;;;;;;18.68;100.00;100322.16;5083977;28;20049;-70
2023/08/08 08:03:06;;;;;;;3.58;0.90;;;;;;;18.64;100.00;100326.03;5090685;28;20494;-70
2023/08/08 08:05:34;;;;;;;6.72;1.05;;;;;;;18.25;100.00;100326.31;5087236;28;20403;-70
2023/08/08 08:08:01;;;;;;;5.85;1.00;;;;;;;18.27;100.00;100323.56;5090569;28;20101;-70
2023/08/08 08:10:28;;;;;;;4.63;1.10;;;;;;;18.25;100.00;100322.84;5078117;28;20052;-70
2023/08/08 08:12:57;;;;;;;2.63;0.90;;;;;;;18.00;100.00;100316.75;5081377;28;20076;-70
2023/08/08 08:15:25;;;;;;;4.50;0.93;;;;;;;17.51;100.00;100313.28;5084557;28;20079;-70
2023/08/08 08:17:52;;;;;;;3.15;0.93;;;;;;;17.79;100.00;100329.75;5087854;28;20549;-70
2023/08/08 08:20:19;;;;;;;3.80;0.95;;;;;;;18.26;100.00;100321.88;5085788;28;20500;-70
2023/08/08 08:22:46;;;;;;;5.68;1.00;;;;;;;18.41;100.00;100310.09;5080585;28;20044;-70
2023/08/08 08:25:14;;;;;;;4.05;0.93;;;;;;;18.39;100.00;100306.72;5073867;28;20053;-70
2023/08/08 08:27:41;;;;;;;6.32;1.20;;;;;;;18.28;100.00;100309.38;5077244;28;20055;-70
2023/08/08 08:30:09;;;;;;;4.60;1.02;;;;;;;18.72;100.00;100297.94;5089224;28;20048;-70
2023/08/08 08:32:38;;;;;;;4.57;1.15;;;;;;;18.42;100.00;100313.59;5085134;28;20051;-69
2023/08/08 08:35:09;;;;;;;5.72;1.30;;;;;;;18.25;100.00;100320.19;5081722;28;20105;-70
2023/08/08 08:37:37;;;;;;;6.63;1.20;;;;;;;18.09;100.00;100339.06;5108843;27;20052;-70
2023/08/08 08:40:04;;;;;;;3.88;0.90;;;;;;;17.73;100.00;100317.00;5080880;28;20512;-69
2023/08/08 08:42:33;;;;;;;4.97;1.10;;;;;;;17.36;100.00;100325.81;5077789;28;20044;-70
2023/08/08 08:45:02;;;;;;;6.40;1.20;;;;;;;17.35;100.00;100325.94;5087006;28;20409;-69
2023/08/08 08:47:30;;;;;;;7.57;1.27;;;;;;;17.80;100.00;100308.47;5080849;28;20127;-69
2023/08/08 08:49:58;;;;;;;3.85;1.13;;;;;;;18.16;100.00;100319.09;5086595;28;20052;-70
2023/08/08 08:52:25;;;;;;;6.75;1.35;;;;;;;17.92;100.00;100311.19;5081795;28;20048;-70
2023/08/08 08:54:52;;;;;;;5.30;1.00;;;;;;;18.18;100.00;100288.00;5086170;28;20048;-70
2023/08/08 08:57:21;;;;;;;3.55;1.00;;;;;;;17.77;100.00;100300.75;5082207;28;20055;-70
2023/08/08 08:59:47;;;;;;;3.88;0.90;;;;;;;17.79;100.00;100305.94;5082000;28;20090;-70
2023/08/08 09:02:14;;;;;;;6.03;1.30;;;;;;;17.70;100.00;100301.31;5084320;28;20044;-70
2023/08/08 09:04:42;;;;;;;1.45;0.80;;;;;;;17.69;100.00;100304.91;5077652;28;20081;-70
2023/08/08 09:07:09;;;;;;;3.67;1.00;;;;;;;17.61;100.00;100301.03;5068693;28;20049;-69
2023/08/08 09:09:37;;;;;;;3.42;1.10;;;;;;;18.18;100.00;100310.06;5081264;28;20052;-69
2023/08/08 09:12:05;;;;;;;3.80;1.10;;;;;;;18.57;100.00;100297.34;5086687;28;20452;-69
2023/08/08 09:14:31;;;;;;;7.28;1.17;;;;;;;18.12;100.00;100312.34;5078103;28;20537;-70
2023/08/08 09:16:58;;;;;;;5.22;1.10;;;;;;;17.99;100.00;100304.47;5086474;28;20417;-70
2023/08/08 09:19:25;;;;;;;3.22;0.80;;;;;;;18.37;100.00;100287.44;5077050;28;20490;-69
2023/08/08 09:21:53;;;;;;;5.45;1.10;;;;;;;18.47;100.00;100299.03;5073779;28;20400;-69
2023/08/08 09:24:20;;;;;;;4.25;1.10;;;;;;;18.26;100.00;100298.03;5069546;28;20053;-69
2023/08/08 09:26:47;;;;;;;7.57;1.42;;;;;;;18.50;100.00;100293.50;5076229;28;20597;-70
2023/08/08 09:29:14;;;;;;;5.07;1.08;;;;;;;18.39;100.00;100293.47;5081810;28;20558;-69
2023/08/08 09:31:41;;;;;;;6.38;1.38;;;;;;;18.30;100.00;100295.03;5088312;28;20083;-70
2023/08/08 09:34:08;;;;;;;6.15;1.17;;;;;;;17.93;100.00;100311.06;5084004;28;20049;-69
2023/08/08 09:36:36;;;;;;;6.88;1.20;;;;;;;18.01;100.00;100306.03;5086461;28;20059;-69
2023/08/08 09:39:04;;;;;;;2.95;0.90;;;;;;;17.94;100.00;100293.38;5077985;28;20486;-69
2023/08/08 09:41:31;;;;;;;4.05;1.00;;;;;;;17.73;100.00;100309.88;5085409;28;20048;-70
2023/08/08 09:43:59;;;;;;;8.32;1.55;;;;;;;17.72;100.00;100315.28;5092604;28;20051;-69
2023/08/08 09:46:26;;;;;;;2.70;0.98;;;;;;;18.17;100.00;100315.50;5092722;28;20489;-69
2023/08/08 09:48:54;;;;;;;3.97;1.00;;;;;;;18.34;100.00;100306.22;5086954;28;20044;-69
2023/08/08 09:51:22;;;;;;;3.38;0.90;;;;;;;18.40;100.00;100313.72;5084237;28;20055;-69
2023/08/08 09:53:49;;;;;;;4.05;0.95;;;;;;;18.74;100.00;100292.53;5078802;28;20505;-69
2023/08/08 09:56:16;;;;;;;3.95;1.05;;;;;;;18.52;100.00;100318.06;5078558;28;20062;-69
2023/08/08 09:58:44;;;;;;;5.15;1.02;;;;;;;18.86;100.00;100309.31;5087032;28;20380;-69
2023/08/08 10:01:12;;;;;;;3.75;1.00;;;;;;;18.47;100.00;100296.38;5081292;28;20131;-70
2023/08/08 10:03:43;;;;;;;7.28;1.08;;;;;;;18.46;100.00;100312.41;5091396;28;20138;-69
2023/08/08 10:06:10;;;;;;;5.72;1.00;;;;;;;18.47;100.00;100316.72;5080342;28;20045;-69
2023/08/08 10:08:37;;;;;;;3.83;1.00;;;;;;;17.65;100.00;100312.25;5088399;28;20036;-69
2023/08/08 10:11:07;;;;;;;5.07;1.13;;;;;;;17.93;100.00;100315.53;5078929;28;20128;-70
2023/08/08 10:13:35;;;;;;;5.97;1.15;;;;;;;17.87;100.00;100313.34;5090346;28;20048;-69
2023/08/08 10:16:08;;;;;;;4.63;0.90;;;;;;;18.32;100.00;100306.34;5071733;28;20259;-70
2023/08/08 10:18:35;;;;;;;5.65;1.20;;;;;;;18.71;100.00;100321.94;5076915;28;20040;-69
2023/08/08 10:21:04;;;;;;;4.30;0.88;;;;;;;18.70;100.00;100302.53;5090528;28;20052;-69
2023/08/08 10:23:37;;;;;;;8.18;1.30;;;;;;;18.73;100.00;100290.81;5073681;28;20044;-70
2023/08/08 10:26:17;;;;;;;4.68;0.98;;;;;;;18.30;100.00;100316.22;5081509;28;20560;-69
2023/08/08 10:28:56;;;;;;;6.28;1.00;;;;;;;19.02;100.00;100301.81;5078288;28;20042;-69
2023/08/08 10:31:26;;;;;;;3.67;1.23;;;;;;;18.76;100.00;100302.03;5081089;28;20092;-69
2023/08/08 10:34:04;;;;;;;7.35;1.27;;;;;;;18.93;100.00;100297.25;5077737;28;20055;-69
2023/08/08 10:37:04;;;;;;;7.40;1.40;;;;;;;19.24;100.00;100294.78;5085632;28;20426;-69
2023/08/08 10:39:31;;;;;;;12.05;1.38;;;;;;;19.10;100.00;100301.19;5061795;28;20049;-69
2023/08/08 10:42:03;;;;;;;5.18;1.05;;;;;;;19.12;100.00;100296.59;5089097;28;20527;-69
2023/08/08 10:44:30;;;;;;;3.40;0.90;;;;;;;19.12;100.00;100278.91;5085250;28;20056;-69
2023/08/08 10:46:56;;;;;;;3.05;0.93;;;;;;;19.32;100.00;100271.97;5090999;28;20052;-69
2023/08/08 10:49:26;;;;;;;3.45;0.93;;;;;;;18.77;100.00;100284.34;5090138;28;20050;-70
2023/08/08 10:51:53;;;;;;;3.58;0.95;;;;;;;19.07;100.00;100290.81;5073512;28;20051;-69
2023/08/08 10:54:27;;;;;;;4.05;0.95;;;;;;;18.86;100.00;100285.44;5087199;28;20354;-69
2023/08/08 10:56:58;;;;;;;2.90;0.90;;;;;;;19.27;100.00;100283.91;5083522;28;20051;-69
2023/08/08 10:59:27;;;;;;;2.65;0.98;;;;;;;18.94;100.00;100283.00;5083772;28;20403;-69
2023/08/08 11:01:56;;;;;;;3.70;0.70;;;;;;;19.72;100.00;100278.44;5082605;28;20041;-69
2023/08/08 11:04:25;;;;;;;2.92;0.80;;;;;;;19.37;100.00;100274.25;5088592;28;20048;-69
2023/08/08 11:06:54;;;;;;;3.65;1.10;;;;;;;19.61;100.00;100273.19;5084335;28;20052;-69
2023/08/08 11:09:21;;;;;;;4.25;0.80;;;;;;;19.74;100.00;100271.19;5090666;28;20482;-69
2023/08/08 11:11:48;;;;;;;3.47;0.90;;;;;;;19.97;100.00;100263.94;5091468;28;20405;-69
2023/08/08 11:14:17;;;;;;;9.25;1.13;;;;;;;19.84;100.00;100265.97;5079041;28;20490;-69
2023/08/08 11:16:45;;;;;;;3.78;1.00;;;;;;;19.86;100.00;100262.22;5084268;28;20051;-69
2023/08/08 11:19:12;;;;;;;3.38;0.95;;;;;;;19.65;100.00;100272.78;5080494;28;20047;-69